Time;durP1;ratioP1;P1;durP2;ratioP2;P2;SDS_P1;SDS_P2;PMS_P1;PMS_P2;Temp;Humidity;BMP_temperature;BMP_pressure;BME280_temperature;BME280_humidity;BME280_pressure;Samples;Min_cycle;Max_cycle;Signal;HPM_P1;HPM_P2
2021/07/27 00:02:52;;;;;;;19.50;16.48;;;;;;;21.07;68.97;98572.55;2211969;81;21289;-82
2021/07/27 00:05:53;;;;;;;28.10;17.02;;;;;;;21.01;69.35;98570.12;2212327;81;20952;-82
2021/07/27 00:08:53;;;;;;;19.80;15.80;;;;;;;20.93;69.58;98577.02;2212033;81;20988;-82
2021/07/27 00:11:54;;;;;;;18.82;15.25;;;;;;;20.87;69.71;98569.27;2216202;80;20972;-82
2021/07/27 00:14:54;;;;;;;18.48;15.40;;;;;;;20.80;69.92;98573.47;2222390;80;20913;-81
2021/07/27 00:17:55;;;;;;;17.62;15.72;;;;;;;20.75;70.21;98574.95;2222280;80;20905;-81
2021/07/27 00:20:55;;;;;;;17.57;15.78;;;;;;;20.69;70.43;98573.83;2222116;80;20896;-82
2021/07/27 00:23:56;;;;;;;21.07;15.50;;;;;;;20.62;70.54;98557.71;2222288;80;20889;-81
2021/07/27 00:26:57;;;;;;;19.75;16.52;;;;;;;20.50;70.75;98556.79;2222578;80;20905;-83
2021/07/27 00:29:58;;;;;;;19.50;16.05;;;;;;;20.40;71.17;98559.33;2222201;80;21347;-82
2021/07/27 00:32:59;;;;;;;18.98;16.10;;;;;;;20.35;71.54;98556.34;2222232;80;20920;-81
2021/07/27 00:36:02;;;;;;;18.48;16.57;;;;;;;20.26;71.70;98548.67;2222273;80;20929;-81
2021/07/27 00:39:02;;;;;;;21.90;16.37;;;;;;;20.15;71.90;98542.85;2222181;80;20979;-82
2021/07/27 00:42:03;;;;;;;17.48;14.65;;;;;;;20.07;72.32;98547.52;2222344;80;20948;-81
2021/07/27 00:45:03;;;;;;;17.50;15.75;;;;;;;20.04;72.51;98538.34;2222395;80;21371;-81
2021/07/27 00:48:04;;;;;;;20.27;14.43;;;;;;;20.05;72.51;98541.41;2222410;80;21340;-81
2021/07/27 00:51:04;;;;;;;17.85;15.90;;;;;;;20.10;72.69;98532.85;2222560;80;20881;-81
2021/07/27 00:54:06;;;;;;;17.25;15.32;;;;;;;20.16;72.95;98531.80;2222558;80;20877;-81
2021/07/27 00:57:07;;;;;;;17.20;15.40;;;;;;;20.19;72.79;98531.23;2222387;80;20944;-81
2021/07/27 01:00:09;;;;;;;20.75;15.53;;;;;;;20.18;72.71;98531.28;2192000;80;20919;-81
2021/07/27 01:03:10;;;;;;;20.48;15.28;;;;;;;20.15;72.81;98539.33;2222493;80;20904;-81
2021/07/27 01:06:11;;;;;;;19.23;16.55;;;;;;;20.11;72.85;98545.19;2222440;80;20920;-81
2021/07/27 01:09:11;;;;;;;17.07;15.28;;;;;;;20.01;72.98;98548.58;2222487;80;21332;-81
2021/07/27 01:12:12;;;;;;;17.70;14.70;;;;;;;19.94;73.10;98542.16;2222478;80;20999;-81
2021/07/27 01:15:12;;;;;;;20.08;15.93;;;;;;;19.85;73.21;98534.49;2222844;80;20916;-81
2021/07/27 01:18:20;;;;;;;17.77;15.38;;;;;;;19.78;73.59;98532.95;2223022;80;20947;-81
2021/07/27 01:37:57;;;;;;;15.20;13.60;;;;;;;19.96;73.80;98500.63;2222457;80;20996;-81
2021/07/27 01:43:57;;;;;;;15.78;13.98;;;;;;;20.03;73.94;98491.57;2194640;80;21090;-82
2021/07/27 01:46:57;;;;;;;18.40;14.70;;;;;;;20.01;74.08;98495.59;2222681;80;20901;-82
2021/07/27 01:49:58;;;;;;;18.67;14.77;;;;;;;19.98;74.20;98486.88;2222729;80;20916;-81
2021/07/27 01:53:04;;;;;;;15.65;14.00;;;;;;;19.97;74.37;98487.79;2222640;80;21324;-81
2021/07/27 01:56:01;;;;;;;16.95;15.25;;;;;;;19.98;74.45;98494.37;2222125;80;21366;-82
2021/07/27 01:59:01;;;;;;;26.77;15.48;;;;;;;20.03;74.54;98502.17;2222382;80;20944;-81
2021/07/27 02:02:02;;;;;;;23.40;15.80;;;;;;;20.08;75.15;98517.92;2222456;80;20921;-80
2021/07/27 02:05:02;;;;;;;28.57;17.45;;;;;;;20.09;75.40;98525.82;2222773;80;20893;-81
2021/07/27 02:08:03;;;;;;;16.57;14.95;;;;;;;20.13;75.42;98519.97;2222972;80;21357;-82
2021/07/27 02:11:06;;;;;;;16.65;14.58;;;;;;;20.11;75.08;98522.66;2222833;80;20904;-81
2021/07/27 02:14:06;;;;;;;15.80;14.20;;;;;;;20.05;75.45;98530.80;2211718;80;21044;-82
2021/07/27 02:17:06;;;;;;;16.50;14.70;;;;;;;19.97;75.40;98524.42;2212286;81;20976;-83
2021/07/27 02:20:07;;;;;;;17.82;16.10;;;;;;;19.92;75.93;98524.13;2212515;81;20949;-81
2021/07/27 02:23:07;;;;;;;19.42;16.30;;;;;;;19.87;76.37;98529.56;2212194;81;20916;-81
2021/07/27 02:26:08;;;;;;;20.02;17.07;;;;;;;19.84;76.46;98532.76;2212245;81;20921;-80
2021/07/27 02:29:09;;;;;;;17.35;15.55;;;;;;;19.79;76.68;98532.89;2211915;81;20925;-81
2021/07/27 02:32:09;;;;;;;18.25;16.35;;;;;;;19.76;76.82;98541.39;2212167;81;21320;-81
2021/07/27 02:35:10;;;;;;;18.30;16.50;;;;;;;19.72;77.14;98553.40;2212157;81;20929;-81
2021/07/27 02:38:11;;;;;;;18.65;16.00;;;;;;;19.72;77.53;98565.77;2212264;81;20932;-81
2021/07/27 02:41:11;;;;;;;16.73;14.73;;;;;;;19.73;77.40;98570.16;2212190;81;20955;-82
2021/07/27 02:44:12;;;;;;;15.85;14.35;;;;;;;19.73;77.63;98572.80;2212258;81;21020;-82
2021/07/27 02:47:12;;;;;;;19.12;14.98;;;;;;;19.69;77.76;98573.34;2212531;81;20940;-82
2021/07/27 02:50:13;;;;;;;31.62;14.78;;;;;;;19.68;77.90;98574.72;2212347;81;20925;-82
2021/07/27 02:53:14;;;;;;;16.12;13.55;;;;;;;19.67;78.09;98581.80;2212294;81;21140;-82
2021/07/27 02:56:15;;;;;;;15.65;14.05;;;;;;;19.67;78.26;98583.12;2212224;81;20956;-82
2021/07/27 02:59:15;;;;;;;16.27;13.13;;;;;;;19.67;78.33;98586.22;2212122;81;20996;-81
2021/07/27 03:02:16;;;;;;;18.15;14.95;;;;;;;19.67;78.35;98590.20;2212160;81;21008;-80
2021/07/27 03:05:17;;;;;;;16.15;14.03;;;;;;;19.66;78.43;98589.33;2212164;81;20985;-82
2021/07/27 03:08:21;;;;;;;18.02;13.70;;;;;;;19.65;78.65;98578.32;2212111;81;20951;-81
2021/07/27 03:11:23;;;;;;;16.57;13.03;;;;;;;19.65;78.48;98582.75;2212049;80;20960;-81
2021/07/27 03:14:23;;;;;;;14.58;13.08;;;;;;;19.64;78.54;98579.23;2222651;80;21075;-81
2021/07/27 03:17:24;;;;;;;15.55;12.85;;;;;;;19.64;78.59;98571.29;2222419;80;20956;-81
2021/07/27 03:20:24;;;;;;;14.60;13.10;;;;;;;19.64;78.79;98575.27;2222830;80;21343;-81
2021/07/27 03:26:27;;;;;;;19.07;12.68;;;;;;;19.65;79.05;98578.32;2221238;80;20920;-82
2021/07/27 03:29:28;;;;;;;19.67;14.03;;;;;;;19.67;78.95;98579.60;2222913;80;20947;-79
2021/07/27 03:32:29;;;;;;;15.40;13.38;;;;;;;19.87;80.18;98575.91;2223099;80;20932;-79
2021/07/27 03:35:30;;;;;;;18.23;13.15;;;;;;;20.66;78.58;98568.16;2223062;80;21020;-80
2021/07/27 03:38:30;;;;;;;15.58;12.30;;;;;;;20.86;76.92;98575.48;2223158;80;21007;-79
2021/07/27 03:41:31;;;;;;;14.25;12.47;;;;;;;20.80;76.66;98570.36;2223219;80;20973;-80
2021/07/27 03:44:32;;;;;;;12.05;10.85;;;;;;;20.90;76.55;98564.31;2223086;80;21330;-79
2021/07/27 03:47:32;;;;;;;13.68;11.20;;;;;;;21.06;75.84;98563.33;2222736;80;20976;-79
2021/07/27 03:50:33;;;;;;;16.67;12.07;;;;;;;20.90;75.69;98558.55;2221541;80;20947;-79
2021/07/27 03:53:33;;;;;;;21.10;12.15;;;;;;;20.83;75.69;98559.67;2222098;80;20933;-79
2021/07/27 03:56:34;;;;;;;18.10;12.53;;;;;;;20.76;76.67;98554.59;2221588;80;21644;-80
2021/07/27 03:59:35;;;;;;;18.12;11.78;;;;;;;20.87;76.68;98552.48;2222251;80;20900;-81
2021/07/27 04:02:35;;;;;;;15.05;12.53;;;;;;;20.97;76.18;98556.09;2222430;80;20968;-80
2021/07/27 04:05:36;;;;;;;13.88;12.25;;;;;;;20.83;76.12;98570.28;2222915;80;20952;-80
2021/07/27 04:08:36;;;;;;;16.62;12.60;;;;;;;20.64;76.44;98572.66;2222562;80;20979;-80
2021/07/27 04:11:36;;;;;;;13.32;11.97;;;;;;;20.72;77.32;98565.77;2222667;80;20919;-79
2021/07/27 04:14:37;;;;;;;15.65;11.50;;;;;;;20.75;76.42;98554.19;2212123;81;21006;-80
2021/07/27 04:17:37;;;;;;;15.30;11.73;;;;;;;20.86;76.87;98542.33;2212471;81;20995;-80
2021/07/27 04:20:38;;;;;;;14.38;11.53;;;;;;;20.88;76.99;98535.19;2212398;81;20960;-80
2021/07/27 04:23:39;;;;;;;13.95;12.13;;;;;;;20.94;76.74;98533.64;2212293;81;20936;-81
2021/07/27 04:26:40;;;;;;;14.60;11.57;;;;;;;20.79;76.78;98536.79;2212019;81;20909;-80
2021/07/27 04:29:40;;;;;;;17.55;12.33;;;;;;;20.76;77.31;98538.22;2211981;81;20928;-80
2021/07/27 04:32:42;;;;;;;18.15;14.20;;;;;;;20.87;76.85;98529.47;2212137;81;20971;-80
2021/07/27 04:35:45;;;;;;;15.55;13.88;;;;;;;20.77;76.87;98525.83;2211760;81;21036;-78
2021/07/27 04:38:45;;;;;;;15.63;12.53;;;;;;;20.81;77.70;98539.42;2211679;81;20964;-80
2021/07/27 04:41:46;;;;;;;19.15;13.03;;;;;;;20.94;77.17;98534.10;2211922;81;21188;-81
2021/07/27 04:44:46;;;;;;;29.25;20.90;;;;;;;20.89;76.38;98563.91;2211629;81;20955;-80
2021/07/27 04:47:46;;;;;;;27.42;20.65;;;;;;;20.81;76.68;98564.62;2211779;81;20901;-80
2021/07/27 04:50:47;;;;;;;33.08;16.48;;;;;;;20.88;77.03;98569.67;2211283;81;21273;-79
2021/07/27 04:53:49;;;;;;;46.02;30.82;;;;;;;20.97;76.55;98569.36;2211935;81;20936;-80
2021/07/27 04:56:49;;;;;;;36.68;18.02;;;;;;;20.98;76.55;98569.77;2211256;81;21660;-80
2021/07/27 04:59:50;;;;;;;36.83;14.33;;;;;;;21.23;76.69;98577.77;2211659;81;20968;-80
2021/07/27 05:02:50;;;;;;;41.58;15.53;;;;;;;21.32;75.81;98575.70;2212494;81;20909;-79
2021/07/27 05:05:51;;;;;;;28.20;13.65;;;;;;;21.37;75.53;98578.60;2212065;81;20975;-80
2021/07/27 05:08:51;;;;;;;17.27;11.33;;;;;;;21.44;75.32;98574.80;2211561;81;20976;-82
2021/07/27 05:11:52;;;;;;;18.12;12.03;;;;;;;21.53;75.21;98577.13;2212161;81;21280;-82
2021/07/27 05:14:52;;;;;;;30.70;16.15;;;;;;;21.76;74.71;98574.98;2211951;81;20976;-81
2021/07/27 05:17:53;;;;;;;53.13;15.58;;;;;;;22.02;74.33;98573.98;2211188;81;20976;-80
2021/07/27 05:20:53;;;;;;;46.77;14.98;;;;;;;22.40;73.95;98567.66;2211800;81;20971;-80
2021/07/27 05:23:55;;;;;;;25.88;10.78;;;;;;;22.87;72.82;98571.95;2211834;81;20992;-80
2021/07/27 05:26:55;;;;;;;13.35;9.78;;;;;;;23.50;71.27;98578.57;2212325;81;20935;-81
2021/07/27 05:29:56;;;;;;;9.20;8.30;;;;;;;23.86;69.25;98577.41;2212248;80;21266;-83
2021/07/27 05:33:00;;;;;;;13.03;8.85;;;;;;;23.94;68.50;98592.57;2211476;80;20979;-81
2021/07/27 05:36:01;;;;;;;11.93;9.20;;;;;;;24.01;68.42;98589.16;2211155;80;20943;-80
2021/07/27 05:39:02;;;;;;;17.02;8.80;;;;;;;23.97;68.11;98605.76;2211508;81;20951;-82
2021/07/27 05:42:03;;;;;;;13.03;8.90;;;;;;;23.78;67.58;98623.06;2211168;81;20905;-81
2021/07/27 05:45:03;;;;;;;14.75;8.88;;;;;;;23.48;67.84;98641.70;2211199;80;21019;-82
2021/07/27 05:48:06;;;;;;;14.38;10.82;;;;;;;23.11;68.83;98628.60;2211888;80;20905;-80
2021/07/27 05:51:10;;;;;;;21.05;15.60;;;;;;;22.94;69.36;98651.53;2211955;81;21277;-81
2021/07/27 05:54:15;;;;;;;26.50;15.70;;;;;;;22.81;69.44;98642.72;2211798;81;21005;-82
2021/07/27 05:57:17;;;;;;;31.73;14.30;;;;;;;22.55;70.27;98654.84;2211756;81;21032;-81
2021/07/27 06:00:18;;;;;;;19.00;15.90;;;;;;;22.63;70.66;98655.41;2211761;81;21015;-80
2021/07/27 06:03:18;;;;;;;18.70;14.35;;;;;;;;;;2211327;81;20925;-81
2021/07/27 06:06:19;;;;;;;24.20;17.37;;;;;;;22.54;71.00;98668.61;2211195;80;21396;-81
2021/07/27 06:09:20;;;;;;;23.05;18.92;;;;;;;22.60;70.85;98660.84;2210625;81;21342;-82
2021/07/27 06:12:20;;;;;;;31.97;24.98;;;;;;;22.65;70.74;98652.22;2211156;80;20964;-82
2021/07/27 06:15:21;;;;;;;35.03;25.70;;;;;;;22.81;70.29;98660.48;2210512;81;20979;-81
2021/07/27 06:18:21;;;;;;;28.85;21.17;;;;;;;23.15;70.07;98658.16;2211484;81;20992;-81
2021/07/27 06:21:22;;;;;;;23.40;20.45;;;;;;;23.54;69.10;98657.89;2211515;81;20945;-81
2021/07/27 06:24:22;;;;;;;27.87;24.15;;;;;;;23.74;68.37;98658.77;2210818;81;20905;-81
2021/07/27 06:27:23;;;;;;;26.48;21.48;;;;;;;23.73;67.55;98660.18;2211700;81;21300;-81
2021/07/27 06:30:23;;;;;;;25.23;18.95;;;;;;;23.99;66.50;98663.88;2209793;81;20940;-81
2021/07/27 06:33:24;;;;;;;28.75;20.80;;;;;;;24.38;65.93;98663.91;2210541;81;20893;-82
2021/07/27 06:36:24;;;;;;;29.75;20.43;;;;;;;24.51;64.53;98668.66;2210950;81;20924;-81
2021/07/27 06:39:25;;;;;;;23.12;20.65;;;;;;;24.24;64.82;98663.61;2210942;81;20936;-81
2021/07/27 06:42:25;;;;;;;24.37;21.25;;;;;;;24.30;64.83;98671.87;2210689;81;20901;-82
2021/07/27 06:45:26;;;;;;;29.07;22.45;;;;;;;24.30;65.08;98662.06;2210909;81;21395;-80
2021/07/27 06:48:26;;;;;;;27.07;22.48;;;;;;;24.36;64.53;98662.24;2210657;81;20964;-81
2021/07/27 06:51:27;;;;;;;27.00;22.65;;;;;;;24.60;63.48;98667.75;2210661;81;21027;-81
2021/07/27 06:54:27;;;;;;;25.95;22.62;;;;;;;24.56;62.00;98670.17;2211924;81;20909;-81
2021/07/27 06:57:28;;;;;;;25.68;23.05;;;;;;;24.24;62.98;98669.41;2210884;81;21348;-82
2021/07/27 07:00:28;;;;;;;26.97;23.70;;;;;;;24.07;63.94;98672.86;2210755;81;21660;-82
2021/07/27 07:03:29;;;;;;;27.07;24.23;;;;;;;23.90;64.56;98677.61;2211728;81;20956;-82
2021/07/27 07:06:30;;;;;;;30.85;25.40;;;;;;;23.54;65.78;98688.52;2211715;81;20900;-82
2021/07/27 07:09:31;;;;;;;29.82;25.50;;;;;;;23.19;66.81;98669.08;2211658;81;20916;-81
2021/07/27 07:12:31;;;;;;;27.93;25.12;;;;;;;23.06;67.65;98674.98;2212325;80;21091;-81
2021/07/27 07:15:32;;;;;;;27.52;24.70;;;;;;;23.05;68.03;98683.90;2221892;80;21026;-81
2021/07/27 07:18:32;;;;;;;30.90;26.80;;;;;;;23.06;68.45;98689.16;2221826;80;20990;-83
2021/07/27 07:21:33;;;;;;;32.20;28.42;;;;;;;23.04;68.45;98680.38;2221410;80;20928;-81
2021/07/27 07:24:33;;;;;;;28.38;24.90;;;;;;;22.99;68.67;98677.03;2220866;80;20932;-81
2021/07/27 07:27:34;;;;;;;33.00;26.23;;;;;;;23.09;69.04;98672.20;2221564;80;21339;-82
2021/07/27 07:30:34;;;;;;;30.72;27.37;;;;;;;22.99;68.15;98681.48;2221716;80;20964;-81
2021/07/27 07:33:35;;;;;;;30.80;27.52;;;;;;;22.58;69.38;98664.49;2221492;80;20920;-81
2021/07/27 07:36:35;;;;;;;35.70;29.37;;;;;;;22.32;70.65;98658.36;2220833;80;20978;-80
2021/07/27 07:39:36;;;;;;;34.00;30.32;;;;;;;22.06;72.46;98660.69;2220825;80;20963;-80
2021/07/27 07:42:36;;;;;;;36.98;31.37;;;;;;;21.77;73.53;98676.34;2221320;80;20932;-82
2021/07/27 07:45:37;;;;;;;36.75;31.15;;;;;;;21.57;74.04;98677.02;2221317;80;21515;-81
2021/07/27 07:48:38;;;;;;;35.35;31.48;;;;;;;21.67;75.19;98682.00;2221069;80;20944;-82
2021/07/27 07:51:45;;;;;;;35.38;30.45;;;;;;;21.75;74.53;98679.97;2221453;80;21328;-81
2021/07/27 07:54:41;;;;;;;34.95;31.10;;;;;;;21.84;75.20;98673.00;2221077;80;21403;-81
2021/07/27 07:57:42;;;;;;;33.70;30.15;;;;;;;21.93;74.08;98670.00;2221922;80;20960;-81
2021/07/27 08:00:45;;;;;;;33.42;29.85;;;;;;;21.95;74.18;98677.45;2221546;80;21316;-82
2021/07/27 08:03:46;;;;;;;34.23;30.50;;;;;;;22.04;73.95;98683.80;2221712;80;21405;-81
2021/07/27 08:06:46;;;;;;;32.98;29.57;;;;;;;22.17;74.48;98703.68;2221704;80;20963;-80
2021/07/27 08:09:47;;;;;;;37.65;33.67;;;;;;;22.62;74.27;98703.34;2221910;80;20929;-81
2021/07/27 08:12:47;;;;;;;39.23;34.60;;;;;;;23.27;73.92;98710.50;2191180;80;21359;-82
2021/07/27 08:15:49;;;;;;;34.10;28.52;;;;;;;23.81;72.64;98710.01;2221637;80;21038;-82
2021/07/27 08:18:49;;;;;;;38.95;34.80;;;;;;;24.25;69.86;98717.82;2221789;80;20971;-81
2021/07/27 08:21:50;;;;;;;28.27;25.37;;;;;;;24.57;69.62;98726.60;2221984;80;20933;-81
2021/07/27 08:24:50;;;;;;;26.48;23.90;;;;;;;25.10;67.55;98727.21;2222348;80;20944;-80
2021/07/27 08:27:51;;;;;;;27.20;24.30;;;;;;;25.28;67.03;98727.67;2221624;80;21280;-83
2021/07/27 08:30:51;;;;;;;30.00;26.95;;;;;;;25.26;65.60;98732.23;2221334;80;21277;-80
2021/07/27 08:33:52;;;;;;;45.85;41.08;;;;;;;25.65;65.86;98732.50;2221400;80;20939;-80
2021/07/27 08:36:52;;;;;;;33.25;27.80;;;;;;;25.96;64.72;98731.34;2222208;80;20932;-82
2021/07/27 08:39:59;;;;;;;27.17;24.57;;;;;;;26.07;63.24;98732.61;2221770;80;20975;-83
2021/07/27 08:42:55;;;;;;;27.33;24.77;;;;;;;26.58;63.18;98731.17;2221259;80;20916;-83
2021/07/27 08:45:56;;;;;;;26.45;24.00;;;;;;;27.26;61.05;98735.86;2221320;80;20982;-82
2021/07/27 08:48:57;;;;;;;32.28;29.07;;;;;;;27.46;58.77;98736.52;2221900;80;20948;-81
2021/07/27 08:51:57;;;;;;;28.73;25.60;;;;;;;26.90;58.70;98745.95;2221417;80;20908;-81
2021/07/27 08:54:58;;;;;;;29.12;26.02;;;;;;;27.35;59.97;98741.16;2221358;80;21291;-80
2021/07/27 08:57:58;;;;;;;26.20;23.60;;;;;;;27.77;57.16;98740.52;2221053;80;20960;-80
2021/07/27 09:00:59;;;;;;;26.00;23.40;;;;;;;28.01;58.20;98744.88;2221326;80;20967;-80
2021/07/27 09:03:59;;;;;;;24.57;22.20;;;;;;;27.83;57.08;98741.97;2222052;80;21380;-81
2021/07/27 09:07:00;;;;;;;26.37;23.77;;;;;;;27.60;57.53;98752.21;2221519;80;20900;-80
2021/07/27 09:10:00;;;;;;;26.35;23.85;;;;;;;27.63;57.65;98754.33;2221516;80;21410;-81
2021/07/27 09:13:01;;;;;;;27.10;24.32;;;;;;;27.60;57.82;98757.58;2220327;80;20955;-79
2021/07/27 09:16:01;;;;;;;25.80;22.85;;;;;;;27.69;56.88;98757.51;2210528;81;20992;-81
2021/07/27 09:19:02;;;;;;;25.45;23.12;;;;;;;28.02;55.93;98751.11;2210987;81;21007;-80
2021/07/27 09:22:03;;;;;;;26.97;24.23;;;;;;;27.87;54.14;98756.45;2210822;81;20960;-81
2021/07/27 09:25:04;;;;;;;25.72;23.00;;;;;;;27.42;55.52;98754.59;2211180;81;21369;-80
2021/07/27 09:28:05;;;;;;;23.20;20.70;;;;;;;27.01;56.52;98762.80;2211127;81;20948;-82
2021/07/27 09:31:05;;;;;;;23.67;21.25;;;;;;;27.46;56.74;98757.97;2211548;81;21277;-80
2021/07/27 09:34:06;;;;;;;24.23;21.85;;;;;;;27.73;55.53;98755.51;2211185;81;20901;-79
2021/07/27 09:37:06;;;;;;;22.62;20.50;;;;;;;27.64;55.76;98750.22;2210970;81;20928;-80
2021/07/27 09:40:06;;;;;;;22.37;20.00;;;;;;;27.62;55.47;98753.47;2211330;81;20913;-79
2021/07/27 09:43:07;;;;;;;24.57;19.57;;;;;;;27.41;55.53;98753.34;2211414;81;20933;-81
2021/07/27 09:46:08;;;;;;;22.32;20.30;;;;;;;27.35;56.57;98756.38;2210788;81;20987;-81
2021/07/27 09:49:08;;;;;;;21.10;19.20;;;;;;;27.45;55.71;98753.08;2210389;81;20932;-81
2021/07/27 09:52:09;;;;;;;19.85;18.00;;;;;;;27.45;55.36;98749.53;2210927;81;20976;-82
2021/07/27 09:55:09;;;;;;;21.25;18.32;;;;;;;27.45;55.39;98754.42;2210410;81;20933;-79
2021/07/27 09:58:10;;;;;;;20.70;16.93;;;;;;;27.61;56.05;98750.40;2210500;81;20956;-81
2021/07/27 10:01:10;;;;;;;18.23;16.25;;;;;;;28.09;55.86;98750.65;2210311;81;20997;-80
2021/07/27 10:04:11;;;;;;;16.45;14.87;;;;;;;28.69;53.85;98759.08;2209977;81;21371;-80
2021/07/27 10:07:11;;;;;;;17.10;15.60;;;;;;;29.21;52.57;98755.75;2210726;81;21003;-81
2021/07/27 10:10:12;;;;;;;16.05;14.65;;;;;;;29.30;52.68;98747.94;2211386;81;20928;-81
2021/07/27 10:13:13;;;;;;;17.32;15.63;;;;;;;29.56;52.21;98750.30;2210529;80;20992;-81
2021/07/27 10:16:13;;;;;;;16.05;14.55;;;;;;;29.61;51.72;98752.69;2210782;81;20988;-81
2021/07/27 10:19:14;;;;;;;14.70;13.40;;;;;;;29.68;50.85;98752.17;2210852;81;21351;-81
2021/07/27 10:22:16;;;;;;;14.70;13.40;;;;;;;29.49;50.53;98743.61;2210685;81;20960;-80
2021/07/27 10:25:17;;;;;;;15.08;13.43;;;;;;;29.17;50.99;98738.96;2211259;81;21052;-80
2021/07/27 10:28:17;;;;;;;14.63;13.43;;;;;;;29.41;52.22;98740.51;2211040;81;20932;-78
2021/07/27 10:31:18;;;;;;;15.08;13.48;;;;;;;29.52;49.36;98738.03;2211727;81;20956;-79
2021/07/27 10:34:18;;;;;;;13.40;12.28;;;;;;;29.17;50.46;98751.92;2212153;81;20952;-81
2021/07/27 10:37:19;;;;;;;14.47;12.98;;;;;;;29.03;49.45;98749.27;2211483;81;20976;-83
2021/07/27 10:40:19;;;;;;;13.58;12.25;;;;;;;29.36;50.46;98752.05;2211669;81;20932;-82
2021/07/27 10:43:20;;;;;;;15.30;11.48;;;;;;;29.78;49.49;98749.23;2211912;81;21329;-83
2021/07/27 10:46:20;;;;;;;14.98;12.03;;;;;;;29.79;48.75;98746.06;2211173;81;21251;-83
2021/07/27 10:49:25;;;;;;;14.18;12.88;;;;;;;29.89;48.96;98745.81;2210899;81;20932;-80
2021/07/27 10:52:25;;;;;;;13.80;12.00;;;;;;;29.76;48.63;98751.16;2211620;81;20940;-82
2021/07/27 10:55:26;;;;;;;13.88;12.03;;;;;;;29.75;49.33;98752.61;2211079;81;20972;-82
2021/07/27 10:58:26;;;;;;;13.45;12.33;;;;;;;30.00;48.41;98750.45;2211318;81;21006;-80
2021/07/27 11:01:27;;;;;;;23.75;13.72;;;;;;;29.84;48.55;98749.78;2210563;81;20959;-80
2021/07/27 11:04:27;;;;;;;12.75;11.65;;;;;;;29.57;47.97;98753.38;2211011;81;20912;-81
2021/07/27 11:07:28;;;;;;;12.55;11.38;;;;;;;29.16;48.72;98762.28;2211509;81;20941;-82
2021/07/27 11:10:32;;;;;;;14.10;12.25;;;;;;;28.71;49.94;98757.16;2211115;81;20972;-80
2021/07/27 11:13:33;;;;;;;25.55;14.15;;;;;;;29.09;49.00;98756.93;2212104;80;20913;-81
2021/07/27 11:16:34;;;;;;;14.30;12.28;;;;;;;29.28;49.80;98750.34;2221952;80;20995;-80
2021/07/27 11:19:34;;;;;;;14.33;12.95;;;;;;;29.30;49.20;98747.08;2221934;80;20991;-80
2021/07/27 11:22:35;;;;;;;13.28;11.88;;;;;;;29.85;48.33;98744.78;2221505;80;20964;-80
2021/07/27 11:25:35;;;;;;;11.25;10.23;;;;;;;30.00;47.96;98740.55;2221240;80;20964;-80
2021/07/27 11:28:36;;;;;;;13.35;11.93;;;;;;;30.45;47.61;98728.07;2221153;80;20924;-79
2021/07/27 11:31:36;;;;;;;12.45;11.28;;;;;;;30.76;47.23;98728.97;2221994;80;20999;-81
2021/07/27 11:34:37;;;;;;;11.97;10.98;;;;;;;30.81;44.28;98732.19;2221925;80;20916;-79
2021/07/27 11:37:38;;;;;;;12.55;10.32;;;;;;;31.02;45.35;98727.06;2221225;80;20952;-78
2021/07/27 11:40:38;;;;;;;11.48;10.38;;;;;;;31.33;42.42;98723.02;2221917;80;21325;-81
2021/07/27 11:43:39;;;;;;;10.75;9.68;;;;;;;31.44;41.30;98720.37;2222076;80;21291;-81
2021/07/27 11:46:44;;;;;;;10.18;9.28;;;;;;;31.27;41.23;98715.39;2222359;80;20988;-84
2021/07/27 11:49:42;;;;;;;26.20;11.00;;;;;;;31.42;42.21;98719.63;2221046;80;20944;-82
2021/07/27 11:52:42;;;;;;;15.03;8.28;;;;;;;31.52;42.01;98709.00;2221712;80;21297;-81
2021/07/27 11:55:43;;;;;;;9.78;8.73;;;;;;;31.49;40.77;98706.54;2222144;80;20985;-83
2021/07/27 11:58:43;;;;;;;8.88;8.18;;;;;;;31.35;40.21;98704.89;2222147;80;21474;-81
2021/07/27 12:01:44;;;;;;;11.63;7.60;;;;;;;31.02;39.84;98696.93;2221931;80;21333;-79
2021/07/27 12:04:44;;;;;;;8.73;7.87;;;;;;;31.05;40.91;98696.70;2223056;80;21003;-79
2021/07/27 12:07:45;;;;;;;8.45;7.72;;;;;;;31.21;40.77;98684.35;2222130;80;20900;-80
2021/07/27 12:10:45;;;;;;;7.85;7.15;;;;;;;31.41;39.36;98682.84;2221741;80;20917;-80
2021/07/27 12:13:46;;;;;;;8.70;7.80;;;;;;;31.47;39.53;98679.69;2221714;80;21273;-78
2021/07/27 12:16:46;;;;;;;6.95;6.37;;;;;;;31.77;39.83;98679.20;2223378;80;21000;-81
2021/07/27 12:19:47;;;;;;;11.83;7.17;;;;;;;31.53;37.87;98686.45;2222195;80;20995;-79
2021/07/27 12:22:47;;;;;;;7.28;6.53;;;;;;;31.42;38.90;98690.45;2221754;80;20936;-82
2021/07/27 12:25:48;;;;;;;8.00;6.08;;;;;;;31.42;37.95;98687.27;2221746;80;20975;-80
2021/07/27 12:28:48;;;;;;;6.42;5.92;;;;;;;31.45;38.11;98694.27;2221415;80;20923;-80
2021/07/27 12:31:49;;;;;;;6.67;5.90;;;;;;;31.47;38.03;98692.31;2221916;80;20999;-79
2021/07/27 12:34:51;;;;;;;7.53;6.37;;;;;;;31.48;38.59;98686.80;2221853;80;21332;-82
2021/07/27 12:37:51;;;;;;;6.67;6.08;;;;;;;31.68;38.46;98673.13;2221692;80;20940;-80
2021/07/27 12:40:52;;;;;;;6.92;6.33;;;;;;;31.53;38.74;98673.81;2221939;80;21257;-80
2021/07/27 12:43:52;;;;;;;7.03;6.35;;;;;;;31.43;38.50;98674.16;2222431;80;20933;-81
2021/07/27 12:46:53;;;;;;;10.72;6.55;;;;;;;31.16;39.34;98668.12;2222015;80;21031;-79
2021/07/27 12:49:53;;;;;;;10.88;8.08;;;;;;;30.96;40.61;98660.14;2221293;80;21324;-78
2021/07/27 12:52:54;;;;;;;7.42;5.85;;;;;;;31.04;39.42;98652.34;2222225;80;20971;-80
2021/07/27 12:55:55;;;;;;;8.68;5.67;;;;;;;31.24;39.66;98656.30;2222454;80;20928;-80
2021/07/27 12:58:56;;;;;;;6.95;6.20;;;;;;;31.40;39.77;98652.81;2221798;80;21045;-81
2021/07/27 13:01:56;;;;;;;6.62;6.03;;;;;;;31.03;39.99;98656.01;2222378;80;20909;-81
2021/07/27 13:04:56;;;;;;;7.37;6.40;;;;;;;30.29;40.89;98656.43;2221623;80;20896;-81
2021/07/27 13:07:57;;;;;;;15.18;6.97;;;;;;;29.84;42.01;98652.44;2221386;80;21305;-82
2021/07/27 13:10:57;;;;;;;6.17;5.58;;;;;;;30.35;41.81;98645.25;2222019;80;21107;-80
2021/07/27 13:13:58;;;;;;;7.90;6.15;;;;;;;30.48;40.39;98645.71;2221111;80;20940;-81
2021/07/27 13:16:59;;;;;;;6.55;5.85;;;;;;;30.20;41.92;98645.45;2211102;81;21007;-81
2021/07/27 13:19:59;;;;;;;6.20;5.60;;;;;;;30.58;41.66;98641.38;2212117;81;20975;-82
2021/07/27 13:23:00;;;;;;;8.03;5.60;;;;;;;30.79;40.62;98651.95;2212199;80;20945;-82
2021/07/27 13:26:00;;;;;;;5.50;5.00;;;;;;;30.72;38.99;98654.73;2212271;80;20949;-83
2021/07/27 13:29:01;;;;;;;8.45;4.62;;;;;;;30.82;38.27;98663.86;2212738;80;20952;-81
2021/07/27 13:32:02;;;;;;;7.90;5.28;;;;;;;30.84;37.80;98655.17;2212788;81;21297;-82
2021/07/27 13:35:02;;;;;;;5.28;4.78;;;;;;;30.79;38.31;98657.83;2212225;80;21052;-83
2021/07/27 13:38:03;;;;;;;8.48;5.62;;;;;;;31.07;37.91;98660.20;2212205;80;21328;-82
2021/07/27 13:41:03;;;;;;;7.03;5.35;;;;;;;31.28;38.09;98667.22;2211977;80;20920;-82
2021/07/27 13:44:04;;;;;;;5.42;4.92;;;;;;;31.29;37.93;98668.45;2212412;80;20936;-82
2021/07/27 13:47:04;;;;;;;6.67;6.00;;;;;;;30.93;37.92;98680.58;2212230;80;20983;-82
2021/07/27 13:50:05;;;;;;;7.03;5.47;;;;;;;30.83;39.20;98672.80;2212745;81;20964;-82
2021/07/27 13:53:05;;;;;;;6.28;5.72;;;;;;;30.97;38.25;98676.20;2212618;80;20933;-80
2021/07/27 13:56:06;;;;;;;6.92;5.15;;;;;;;31.06;38.27;98666.56;2212574;80;20936;-81
2021/07/27 13:59:07;;;;;;;6.30;5.67;;;;;;;31.36;38.29;98664.80;2212174;80;20983;-80
2021/07/27 14:02:07;;;;;;;5.65;5.17;;;;;;;31.87;37.40;98670.75;2212714;80;20963;-81
2021/07/27 14:05:08;;;;;;;5.47;5.08;;;;;;;31.96;37.16;98668.69;2212496;80;20901;-82
2021/07/27 14:08:08;;;;;;;5.47;5.00;;;;;;;32.00;35.69;98669.30;2212170;80;20940;-81
2021/07/27 14:11:09;;;;;;;5.45;5.05;;;;;;;32.12;36.29;98660.27;2211971;80;20929;-83
2021/07/27 14:14:09;;;;;;;5.72;5.17;;;;;;;32.17;36.07;98667.52;2211963;80;21340;-81
2021/07/27 14:17:10;;;;;;;9.65;5.25;;;;;;;32.00;35.55;98669.30;2221467;80;21679;-81
2021/07/27 14:20:10;;;;;;;5.22;4.83;;;;;;;32.14;36.50;98652.91;2222547;80;20928;-82